createdAt,value
2019-04-25T00:00:13.635Z,51.12
2019-04-25T00:02:46.498Z,50.94
2019-04-25T00:05:17.519Z,50.66
2019-04-25T00:07:48.593Z,51.02
2019-04-25T00:10:19.642Z,50.70
2019-04-25T00:12:51.756Z,50.94
2019-04-25T00:15:23.352Z,51.27
2019-04-25T00:17:54.978Z,51.81
2019-04-25T00:20:26.865Z,51.82
2019-04-25T00:23:04.105Z,51.41
2019-04-25T00:26:06.030Z,51.36
2019-04-25T00:28:37.408Z,51.41
2019-04-25T00:31:09.531Z,51.68
2019-04-25T00:33:41.995Z,51.61
2019-04-25T00:36:13.343Z,51.83
2019-04-25T00:38:46.539Z,51.94
2019-04-25T00:41:17.368Z,52.29
2019-04-25T00:43:49.523Z,52.30
2019-04-25T00:46:22.558Z,52.33
2019-04-25T00:48:55.153Z,52.42
2019-04-25T00:51:26.421Z,52.22
2019-04-25T00:53:57.513Z,52.32
2019-04-25T00:56:28.761Z,52.30
2019-04-25T00:59:06.710Z,52.42
2019-04-25T01:01:55.362Z,52.30
2019-04-25T01:04:29.613Z,52.55
2019-04-25T01:07:01.458Z,52.62
2019-04-25T01:09:32.976Z,52.43
2019-04-25T01:12:04.837Z,52.24
2019-04-25T01:14:36.015Z,52.60
2019-04-25T01:17:07.072Z,52.65
2019-04-25T01:19:38.107Z,53.11
2019-04-25T01:22:09.363Z,53.02
2019-04-25T01:24:40.367Z,53.10
2019-04-25T01:27:13.445Z,53.27
2019-04-25T01:29:44.612Z,53.32
2019-04-25T01:32:18.976Z,52.92
2019-04-25T01:35:09.448Z,52.70
2019-04-25T01:37:59.008Z,53.16
2019-04-25T01:40:40.304Z,52.96
2019-04-25T01:43:35.338Z,52.64
2019-04-25T01:46:06.666Z,52.49
2019-04-25T01:48:38.182Z,53.18
2019-04-25T01:51:09.354Z,53.58
2019-04-25T01:53:40.432Z,53.14
2019-04-25T01:56:13.410Z,52.96
2019-04-25T01:58:45.034Z,52.95
2019-04-25T02:01:16.693Z,53.13
2019-04-25T02:03:47.773Z,53.20
2019-04-25T02:06:19.121Z,52.91
2019-04-25T02:08:50.869Z,53.36
2019-04-25T02:11:28.092Z,53.35
2019-04-25T02:13:59.177Z,53.69
2019-04-25T02:16:30.859Z,53.70
2019-04-25T02:19:03.922Z,53.95
2019-04-25T02:21:35.391Z,54.00
2019-04-25T02:24:06.504Z,53.90
2019-04-25T02:26:38.686Z,54.06
2019-04-25T02:29:10.252Z,54.16
2019-04-25T02:31:41.570Z,53.95
2019-04-25T02:34:17.557Z,53.90
2019-04-25T02:36:46.996Z,54.21
2019-04-25T02:39:20.596Z,54.40
2019-04-25T02:41:51.773Z,54.16
2019-04-25T02:44:24.746Z,54.00
2019-04-25T02:47:11.750Z,54.43
2019-04-25T02:50:09.053Z,54.51
2019-04-25T02:52:44.534Z,54.60
2019-04-25T02:55:29.509Z,54.67
2019-04-25T02:57:48.463Z,54.88
2019-04-25T03:00:45.880Z,54.61
2019-04-25T03:03:02.629Z,54.56
2019-04-25T03:05:35.412Z,54.63
2019-04-25T03:08:09.026Z,54.11
2019-04-25T03:10:39.516Z,53.86
2019-04-25T03:13:12.007Z,54.17
2019-04-25T03:15:44.181Z,54.16
2019-04-25T03:18:16.945Z,53.76
2019-04-25T03:20:56.262Z,53.89
2019-04-25T03:23:37.401Z,54.29
2019-04-25T03:26:09.111Z,54.27
2019-04-25T03:28:40.226Z,54.20
2019-04-25T03:31:18.589Z,54.12
2019-04-25T03:33:45.810Z,54.41
2019-04-25T03:36:17.308Z,54.11
2019-04-25T03:38:48.354Z,54.06
2019-04-25T03:41:20.627Z,54.21
2019-04-25T03:43:51.945Z,54.84
2019-04-25T03:46:23.345Z,54.97
2019-04-25T03:48:54.762Z,55.11
2019-04-25T03:51:25.767Z,55.12
2019-04-25T03:53:57.113Z,54.88
2019-04-25T03:56:28.157Z,54.38
2019-04-25T03:58:59.233Z,54.34
2019-04-25T04:01:31.187Z,54.57
2019-04-25T04:04:04.582Z,54.55
2019-04-25T04:06:35.845Z,53.86
2019-04-25T04:09:08.258Z,53.72
2019-04-25T04:11:39.585Z,53.84
2019-04-25T04:14:10.597Z,53.94
2019-04-25T04:17:00.635Z,53.83
2019-04-25T04:19:34.891Z,53.91
2019-04-25T04:22:16.582Z,54.50
2019-04-25T04:24:51.129Z,54.43
2019-04-25T04:27:23.874Z,54.35
2019-04-25T04:29:54.982Z,54.59
2019-04-25T04:32:25.977Z,55.06
2019-04-25T04:34:57.367Z,55.42
2019-04-25T04:37:28.369Z,55.35
2019-04-25T04:39:59.994Z,55.21
2019-04-25T04:42:31.182Z,55.38
2019-04-25T04:45:03.578Z,55.84
2019-04-25T04:47:34.943Z,56.05
2019-04-25T04:50:06.467Z,56.32
2019-04-25T04:52:37.519Z,55.88
2019-04-25T04:55:11.260Z,55.76
2019-04-25T04:57:43.462Z,55.68
2019-04-25T05:00:15.606Z,56.00
2019-04-25T05:03:04.476Z,56.40
2019-04-25T05:05:55.116Z,56.37
2019-04-25T05:08:30.098Z,56.83
2019-04-25T05:11:01.202Z,56.36
2019-04-25T05:13:34.222Z,56.25
2019-04-25T05:16:05.596Z,56.11
2019-04-25T05:18:39.938Z,56.23
2019-04-25T05:21:09.568Z,56.28
2019-04-25T05:23:40.582Z,56.13
2019-04-25T05:26:12.199Z,56.29
2019-04-25T05:28:44.480Z,56.08
2019-04-25T05:31:34.733Z,56.11
2019-04-25T05:34:05.881Z,56.15
2019-04-25T05:36:39.701Z,56.06
2019-04-25T05:39:11.765Z,55.50
2019-04-25T05:41:54.026Z,55.71
2019-04-25T05:44:27.325Z,55.67
2019-04-25T05:46:58.158Z,55.24
2019-04-25T05:49:29.164Z,55.11
2019-04-25T05:52:00.545Z,55.10
2019-04-25T05:54:31.667Z,55.40
2019-04-25T05:57:03.685Z,54.98
2019-04-25T05:59:34.850Z,54.42
2019-04-25T06:02:06.064Z,54.45
2019-04-25T06:04:37.131Z,54.34
2019-04-25T06:07:08.409Z,54.56
2019-04-25T06:09:55.255Z,54.89
2019-04-25T06:12:43.629Z,54.91
2019-04-25T06:15:15.218Z,55.15
2019-04-25T06:18:03.953Z,54.65
2019-04-25T06:20:36.860Z,54.36
2019-04-25T06:23:17.169Z,54.31
2019-04-25T06:25:48.293Z,54.27
2019-04-25T06:28:21.741Z,54.74
2019-04-25T06:30:54.081Z,54.59
2019-04-25T06:33:25.858Z,54.58
2019-04-25T06:35:58.623Z,54.35
2019-04-25T06:38:29.855Z,54.18
2019-04-25T06:41:00.942Z,54.64
2019-04-25T06:43:34.103Z,54.28
2019-04-25T06:46:31.756Z,54.19
2019-04-25T06:49:09.907Z,53.64
2019-04-25T06:51:54.630Z,53.40
2019-04-25T06:54:27.179Z,52.75
2019-04-25T06:56:59.149Z,52.79
2019-04-25T06:59:32.279Z,52.17
2019-04-25T07:02:04.520Z,51.29
2019-04-25T07:04:35.852Z,51.41
2019-04-25T07:07:11.989Z,50.91
2019-04-25T07:09:39.950Z,51.64
2019-04-25T07:12:10.983Z,49.42
2019-04-25T07:14:43.988Z,49.87
2019-04-25T07:17:15.168Z,50.19
2019-04-25T07:19:46.256Z,49.41
2019-04-25T07:22:17.361Z,48.84
2019-04-25T07:24:48.394Z,47.49
2019-04-25T07:27:37.465Z,45.91
2019-04-25T07:30:32.233Z,45.66
2019-04-25T07:33:05.181Z,45.57
2019-04-25T07:35:36.328Z,44.79
2019-04-25T07:38:07.424Z,43.55
2019-04-25T07:40:38.803Z,43.66
2019-04-25T07:43:09.968Z,44.53
2019-04-25T07:45:41.452Z,43.60
2019-04-25T07:48:13.950Z,42.86
2019-04-25T07:50:45.122Z,42.22
2019-04-25T07:53:16.231Z,41.58
2019-04-25T07:55:47.236Z,41.55
2019-04-25T07:58:18.432Z,41.45
2019-04-25T08:00:49.506Z,41.20
2019-04-25T08:03:20.629Z,41.38
2019-04-25T08:05:53.287Z,40.08
2019-04-25T08:08:24.508Z,39.42
2019-04-25T08:11:08.459Z,39.32
2019-04-25T08:13:55.196Z,38.78
2019-04-25T08:16:28.868Z,38.47
2019-04-25T08:19:03.707Z,38.54
2019-04-25T08:21:35.684Z,38.75
2019-04-25T08:24:08.910Z,39.19
2019-04-25T08:26:40.105Z,37.75
2019-04-25T08:29:11.268Z,37.45
2019-04-25T08:31:43.885Z,37.87
2019-04-25T08:34:15.406Z,37.96
2019-04-25T08:36:46.731Z,38.12
2019-04-25T08:39:18.073Z,36.19
2019-04-25T08:41:49.123Z,37.14
2019-04-25T08:44:20.181Z,36.52
2019-04-25T08:46:51.302Z,35.77
2019-04-25T08:49:27.354Z,35.83
2019-04-25T08:52:00.644Z,36.50
2019-04-25T08:54:47.879Z,34.59
2019-04-25T08:57:36.784Z,34.29
2019-04-25T09:00:17.924Z,34.51
2019-04-25T09:02:54.409Z,35.32
2019-04-25T09:05:36.467Z,35.19
2019-04-25T09:08:07.867Z,34.50
2019-04-25T09:10:40.132Z,35.13
2019-04-25T09:13:13.366Z,34.04
2019-04-25T09:15:45.774Z,33.48
2019-04-25T09:18:17.323Z,33.86
2019-04-25T09:20:48.447Z,33.96
2019-04-25T09:23:19.514Z,34.07
2019-04-25T09:25:50.624Z,34.76
2019-04-25T09:28:21.723Z,34.55
2019-04-25T09:30:54.013Z,35.13
2019-04-25T09:33:25.284Z,34.77
2019-04-25T09:35:56.334Z,33.16
2019-04-25T09:38:27.726Z,33.51
2019-04-25T09:40:58.929Z,32.79
2019-04-25T09:43:29.973Z,33.24
2019-04-25T09:46:24.588Z,33.39
2019-04-25T09:49:01.754Z,33.04
2019-04-25T09:51:40.409Z,33.08
2019-04-25T09:54:29.008Z,31.49
2019-04-25T09:57:10.401Z,31.85
2019-04-25T09:59:42.176Z,31.83
2019-04-25T10:02:15.078Z,31.14
2019-04-25T10:04:46.374Z,31.83
2019-04-25T10:07:17.561Z,31.26
2019-04-25T10:09:48.600Z,31.59
2019-04-25T10:12:19.699Z,31.32
2019-04-25T10:15:45.618Z,30.81
2019-04-25T10:18:17.511Z,31.58
2019-04-25T10:20:49.480Z,31.68
2019-04-25T10:23:20.677Z,30.50
2019-04-25T10:25:53.785Z,29.72
2019-04-25T10:28:25.558Z,30.58
2019-04-25T10:30:56.895Z,31.70
2019-04-25T10:33:28.359Z,30.01
2019-04-25T10:36:01.188Z,28.55
2019-04-25T10:38:33.588Z,29.43
2019-04-25T10:41:05.370Z,28.50
2019-04-25T10:43:36.532Z,28.19
2019-04-25T10:46:07.905Z,27.65
2019-04-25T10:48:40.073Z,27.00
2019-04-25T10:51:11.463Z,27.02
2019-04-25T10:53:45.134Z,27.30
2019-04-25T10:56:15.370Z,27.68
2019-04-25T10:58:46.809Z,27.04
2019-04-25T11:01:17.835Z,27.12
2019-04-25T11:03:58.189Z,26.37
2019-04-25T11:06:29.679Z,26.38
2019-04-25T11:09:03.433Z,26.40
2019-04-25T11:11:41.596Z,24.44
2019-04-25T11:14:13.533Z,24.74
2019-04-25T11:16:45.540Z,25.26
2019-04-25T11:19:18.576Z,25.42
2019-04-25T11:21:49.782Z,26.17
2019-04-25T11:24:20.835Z,25.31
2019-04-25T11:26:51.935Z,25.57
2019-04-25T11:29:24.048Z,24.89
2019-04-25T11:31:55.366Z,23.38
2019-04-25T11:34:27.604Z,23.92
2019-04-25T11:36:58.680Z,23.42
2019-04-25T11:39:58.032Z,22.15
2019-04-25T11:42:29.685Z,21.88
2019-04-25T11:45:00.936Z,23.36
2019-04-25T11:47:33.443Z,22.71
2019-04-25T11:50:06.057Z,22.45
2019-04-25T11:52:37.186Z,22.80
2019-04-25T11:55:09.435Z,23.12
2019-04-25T11:57:40.856Z,23.03
2019-04-25T12:00:21.938Z,23.17
2019-04-25T12:02:47.730Z,22.95
2019-04-25T12:05:19.180Z,22.80
2019-04-25T12:07:50.181Z,23.37
2019-04-25T12:10:24.115Z,23.06
2019-04-25T12:12:55.630Z,24.52
2019-04-25T12:15:27.166Z,23.07
2019-04-25T12:17:58.508Z,23.78
2019-04-25T12:20:29.681Z,23.65
2019-04-25T12:23:08.075Z,24.04
2019-04-25T12:25:35.553Z,24.34
2019-04-25T12:28:06.634Z,22.71
2019-04-25T12:30:40.330Z,21.65
2019-04-25T12:33:19.189Z,23.26
2019-04-25T12:35:43.836Z,21.53
2019-04-25T12:38:15.074Z,21.10
2019-04-25T12:40:47.262Z,22.00
2019-04-25T12:43:19.586Z,23.10
2019-04-25T12:46:03.304Z,23.42
2019-04-25T12:48:35.271Z,24.21
2019-04-25T12:51:06.581Z,23.38
2019-04-25T12:53:37.596Z,23.57
2019-04-25T12:56:08.756Z,22.58
2019-04-25T12:58:39.762Z,22.50
2019-04-25T13:01:11.188Z,22.84
2019-04-25T13:03:43.861Z,21.60
2019-04-25T13:06:15.799Z,22.49
2019-04-25T13:08:47.228Z,23.25
2019-04-25T13:11:18.696Z,21.78
2019-04-25T13:13:50.017Z,22.08
2019-04-25T13:16:21.105Z,21.31
2019-04-25T13:18:52.215Z,21.15
2019-04-25T13:21:23.519Z,19.96
2019-04-25T13:23:55.748Z,18.78
2019-04-25T13:26:31.000Z,19.51
2019-04-25T13:29:18.155Z,19.61
2019-04-25T13:32:18.244Z,19.73
2019-04-25T13:34:49.853Z,19.10
2019-04-25T13:37:20.972Z,18.20
2019-04-25T13:39:52.074Z,18.46
2019-04-25T13:42:23.451Z,17.92
2019-04-25T13:44:54.617Z,18.43
2019-04-25T13:47:29.250Z,19.37
2019-04-25T13:49:58.505Z,19.21
2019-04-25T13:52:29.703Z,18.43
2019-04-25T13:55:00.785Z,18.79
2019-04-25T13:57:32.359Z,17.64
2019-04-25T14:00:04.522Z,18.37
2019-04-25T14:02:36.100Z,18.50
2019-04-25T14:05:08.205Z,18.02
2019-04-25T14:07:40.200Z,17.92
2019-04-25T14:10:11.327Z,18.70
2019-04-25T14:12:43.541Z,18.44
2019-04-25T14:15:17.767Z,17.78
2019-04-25T14:18:11.368Z,17.85
2019-04-25T14:20:58.954Z,18.28
2019-04-25T14:23:30.044Z,17.55
2019-04-25T14:26:01.351Z,17.49
2019-04-25T14:28:34.547Z,17.29
2019-04-25T14:31:07.284Z,17.80
2019-04-25T14:33:38.368Z,18.35
2019-04-25T14:36:09.435Z,17.68
2019-04-25T14:38:41.039Z,17.80
2019-04-25T14:41:12.223Z,18.41
2019-04-25T14:43:43.278Z,18.30
2019-04-25T14:46:14.362Z,17.74
2019-04-25T14:48:45.457Z,18.24
2019-04-25T14:51:16.521Z,18.10
2019-04-25T14:53:47.581Z,18.50
2019-04-25T14:56:26.100Z,18.51
2019-04-25T14:58:57.119Z,19.08
2019-04-25T15:01:28.577Z,19.70
2019-04-25T15:03:59.672Z,19.39
2019-04-25T15:06:30.685Z,19.38
2019-04-25T15:09:01.997Z,19.39
2019-04-25T15:11:35.142Z,18.41
2019-04-25T15:14:06.217Z,18.57
2019-04-25T15:16:37.257Z,19.23
2019-04-25T15:19:08.434Z,18.42
2019-04-25T15:21:39.542Z,18.86
2019-04-25T15:24:10.537Z,19.06
2019-04-25T15:26:41.650Z,18.77
2019-04-25T15:29:12.688Z,18.52
2019-04-25T15:31:55.158Z,18.86
2019-04-25T15:34:16.471Z,18.19
2019-04-25T15:37:01.584Z,18.89
2019-04-25T15:39:55.555Z,19.09
2019-04-25T15:42:51.330Z,18.93
2019-04-25T15:45:32.546Z,18.95
2019-04-25T15:48:04.607Z,19.63
2019-04-25T15:50:36.119Z,20.19
2019-04-25T15:53:08.107Z,20.20
2019-04-25T15:55:52.266Z,20.41
2019-04-25T15:58:23.665Z,20.71
2019-04-25T16:00:54.945Z,20.76
2019-04-25T16:03:25.972Z,21.21
2019-04-25T16:05:56.966Z,20.41
2019-04-25T16:08:28.800Z,21.00
2019-04-25T16:11:00.122Z,21.15
2019-04-25T16:13:31.125Z,20.36
2019-04-25T16:16:02.280Z,20.92
2019-04-25T16:18:33.471Z,21.38
2019-04-25T16:21:06.073Z,21.67
2019-04-25T16:23:37.077Z,21.75
2019-04-25T16:26:09.926Z,21.73
2019-04-25T16:28:41.022Z,21.58
2019-04-25T16:31:14.146Z,21.81
2019-04-25T16:33:45.269Z,21.86
2019-04-25T16:36:16.496Z,22.12
2019-04-25T16:38:47.576Z,21.53
2019-04-25T16:41:19.531Z,21.75
2019-04-25T16:43:54.673Z,22.28
2019-04-25T16:46:26.720Z,22.08
2019-04-25T16:48:57.720Z,23.20
2019-04-25T16:51:29.325Z,22.64
2019-04-25T16:54:01.340Z,22.70
2019-04-25T16:56:32.509Z,22.56
2019-04-25T16:59:03.546Z,22.75
2019-04-25T17:01:36.024Z,23.08
2019-04-25T17:04:08.537Z,23.37
2019-04-25T17:06:39.612Z,23.50
2019-04-25T17:09:10.773Z,23.63
2019-04-25T17:11:42.922Z,23.59
2019-04-25T17:14:31.449Z,23.69
2019-04-25T17:17:30.732Z,24.20
2019-04-25T17:20:15.400Z,24.49
2019-04-25T17:22:46.568Z,24.61
2019-04-25T17:25:17.650Z,24.82
2019-04-25T17:27:48.726Z,25.38
2019-04-25T17:30:20.519Z,25.32
2019-04-25T17:33:05.107Z,25.72
2019-04-25T17:36:07.867Z,25.96
2019-04-25T17:38:45.273Z,29.63
2019-04-25T17:41:16.357Z,36.20
2019-04-25T17:43:47.408Z,37.00
2019-04-25T17:46:20.272Z,38.35
2019-04-25T17:48:51.376Z,39.47
2019-04-25T17:51:22.752Z,40.30
2019-04-25T17:53:54.045Z,41.53
2019-04-25T17:56:25.162Z,42.56
2019-04-25T17:58:56.271Z,42.93
2019-04-25T18:01:27.363Z,42.99
2019-04-25T18:03:58.440Z,42.91
2019-04-25T18:06:29.546Z,42.90
2019-04-25T18:09:00.807Z,42.46
2019-04-25T18:11:33.719Z,42.15
2019-04-25T18:14:05.876Z,41.49
2019-04-25T18:16:41.123Z,41.51
2019-04-25T18:19:21.550Z,41.25
2019-04-25T18:21:54.378Z,40.99
2019-04-25T18:24:56.674Z,40.71
2019-04-25T18:27:35.090Z,40.96
2019-04-25T18:30:08.689Z,41.35
2019-04-25T18:32:43.284Z,40.97
2019-04-25T18:35:22.735Z,41.43
2019-04-25T18:38:07.454Z,41.96
2019-04-25T18:41:20.770Z,42.05
2019-04-25T18:43:55.440Z,42.25
2019-04-25T18:46:33.072Z,42.83
2019-04-25T18:49:04.222Z,43.51
2019-04-25T18:51:36.263Z,44.05
2019-04-25T18:54:26.000Z,44.37
2019-04-25T18:57:01.700Z,44.62
2019-04-25T18:59:50.835Z,45.18
2019-04-25T19:02:32.167Z,45.27
2019-04-25T19:05:21.012Z,45.77
2019-04-25T19:07:52.209Z,46.13
2019-04-25T19:10:24.102Z,46.05
2019-04-25T19:12:55.315Z,46.16
2019-04-25T19:15:26.784Z,46.35
2019-04-25T19:17:57.855Z,46.94
2019-04-25T19:20:29.379Z,46.92
2019-04-25T19:23:00.376Z,47.11
2019-04-25T19:25:31.458Z,47.93
2019-04-25T19:28:02.522Z,47.98
2019-04-25T19:30:33.708Z,48.44
2019-04-25T19:33:07.453Z,48.34
2019-04-25T19:35:37.943Z,48.41
2019-04-25T19:38:09.056Z,48.46
2019-04-25T19:41:08.533Z,48.72
2019-04-25T19:43:58.744Z,49.28
2019-04-25T19:46:41.457Z,48.63
2019-04-25T19:49:12.955Z,49.03
2019-04-25T19:51:45.075Z,49.28
2019-04-25T19:54:17.615Z,48.92
2019-04-25T19:56:49.763Z,48.93
2019-04-25T19:59:20.757Z,49.00
2019-04-25T20:01:53.527Z,49.21
2019-04-25T20:04:44.426Z,48.52
2019-04-25T20:07:26.841Z,48.69
2019-04-25T20:10:22.676Z,48.48
2019-04-25T20:12:55.099Z,48.91
2019-04-25T20:15:26.150Z,48.58
2019-04-25T20:17:57.334Z,47.88
2019-04-25T20:20:29.036Z,47.97
2019-04-25T20:23:00.180Z,47.81
2019-04-25T20:25:31.340Z,48.27
2019-04-25T20:28:02.431Z,47.79
2019-04-25T20:30:33.504Z,47.93
2019-04-25T20:33:04.675Z,48.09
2019-04-25T20:35:36.349Z,48.16
2019-04-25T20:38:07.510Z,48.49
2019-04-25T20:40:38.755Z,48.53
2019-04-25T20:43:09.775Z,48.56
2019-04-25T20:45:41.090Z,49.00
2019-04-25T20:48:12.090Z,48.48
2019-04-25T20:50:43.418Z,49.07
2019-04-25T20:53:14.676Z,48.93
2019-04-25T20:55:46.484Z,48.83
2019-04-25T20:58:18.524Z,49.01
2019-04-25T21:00:52.443Z,49.48
2019-04-25T21:03:23.750Z,49.51
2019-04-25T21:05:57.231Z,49.64
2019-04-25T21:08:28.290Z,49.86
2019-04-25T21:10:59.308Z,49.77
2019-04-25T21:13:38.784Z,49.57
2019-04-25T21:16:45.699Z,49.42
2019-04-25T21:19:19.501Z,49.73
2019-04-25T21:21:50.579Z,49.47
2019-04-25T21:24:21.756Z,49.66
2019-04-25T21:26:52.768Z,49.60
2019-04-25T21:29:24.112Z,50.07
2019-04-25T21:31:55.184Z,49.96
2019-04-25T21:34:30.906Z,49.84
2019-04-25T21:36:59.731Z,49.87
2019-04-25T21:39:43.526Z,49.95
2019-04-25T21:42:39.168Z,49.75
2019-04-25T21:45:11.040Z,49.94
2019-04-25T21:47:42.077Z,49.79
2019-04-25T21:50:13.760Z,49.83
2019-04-25T21:52:44.946Z,49.90
2019-04-25T21:55:16.300Z,49.89
2019-04-25T21:57:47.494Z,50.04
2019-04-25T22:00:37.481Z,50.00
2019-04-25T22:03:10.528Z,50.08
2019-04-25T22:05:42.984Z,50.36
2019-04-25T22:08:14.971Z,50.45
2019-04-25T22:10:46.101Z,50.05
2019-04-25T22:13:18.300Z,49.91
2019-04-25T22:15:50.164Z,50.38
2019-04-25T22:18:21.429Z,50.59
2019-04-25T22:20:52.479Z,50.41
2019-04-25T22:23:23.563Z,50.42
2019-04-25T22:25:54.801Z,50.43
2019-04-25T22:28:26.098Z,50.36
2019-04-25T22:31:07.630Z,50.31
2019-04-25T22:33:48.257Z,50.27
2019-04-25T22:36:21.441Z,50.36
2019-04-25T22:39:11.669Z,50.50
2019-04-25T22:41:47.010Z,50.67
2019-04-25T22:44:20.566Z,50.95
2019-04-25T22:46:51.868Z,51.04
2019-04-25T22:49:23.311Z,50.98
2019-04-25T22:51:54.450Z,51.13
2019-04-25T22:54:27.278Z,51.20
2019-04-25T22:56:58.352Z,50.90
2019-04-25T22:59:29.541Z,51.14
2019-04-25T23:02:14.775Z,51.45
2019-04-25T23:05:04.701Z,51.38
2019-04-25T23:07:26.039Z,51.41
2019-04-25T23:09:57.612Z,51.40
2019-04-25T23:12:29.097Z,51.09
2019-04-25T23:15:00.115Z,51.35
2019-04-25T23:17:31.114Z,51.32
2019-04-25T23:20:03.368Z,51.38
2019-04-25T23:22:36.624Z,51.89
2019-04-25T23:25:10.667Z,52.34
2019-04-25T23:27:59.401Z,52.52
2019-04-25T23:30:38.679Z,52.67
2019-04-25T23:33:10.725Z,52.85
2019-04-25T23:35:42.326Z,52.96
2019-04-25T23:38:14.725Z,52.88
2019-04-25T23:40:46.234Z,52.47
2019-04-25T23:43:17.479Z,52.81
2019-04-25T23:45:48.498Z,52.73
2019-04-25T23:48:19.708Z,52.74
2019-04-25T23:50:53.485Z,52.64
2019-04-25T23:53:23.494Z,52.92
2019-04-25T23:55:54.511Z,53.05
2019-04-25T23:58:25.516Z,53.22
